Time;durP1;ratioP1;P1;durP2;ratioP2;P2;SDS_P1;SDS_P2;PMS_P1;PMS_P2;Temp;Humidity;BMP_temperature;BMP_pressure;BME280_temperature;BME280_humidity;BME280_pressure;Samples;Min_cycle;Max_cycle;Signal;HPM_P1;HPM_P2
2023/04/02 00:01:04;;;;;;;7.27;6.67;;;;;;;-150.27;100.00;61272.81;5231708;28;20040;-74
2023/04/02 00:03:44;;;;;;;7.17;6.50;;;;;;;-150.27;100.00;61272.81;5205491;28;20061;-74
2023/04/02 00:06:29;;;;;;;7.13;6.50;;;;;;;-150.27;100.00;61272.81;5231995;28;20395;-73
2023/04/02 00:09:16;;;;;;;6.63;6.03;;;;;;;-150.27;100.00;61272.81;5230786;28;20116;-73
2023/04/02 00:11:53;;;;;;;6.67;6.07;;;;;;;-150.27;100.00;61272.81;5228375;28;20056;-74
2023/04/02 00:14:27;;;;;;;6.47;5.90;;;;;;;-150.27;100.00;61272.81;5231771;28;20029;-73
2023/04/02 00:17:01;;;;;;;9.90;6.75;;;;;;;-150.27;100.00;61272.81;5228582;28;20056;-71
2023/04/02 00:19:41;;;;;;;8.63;6.57;;;;;;;-150.27;100.00;61272.81;5234162;28;20035;-74
2023/04/02 00:22:19;;;;;;;6.87;6.27;;;;;;;-150.27;100.00;61272.81;5233037;28;20030;-74
2023/04/02 00:24:53;;;;;;;7.80;7.10;;;;;;;-150.27;100.00;61272.81;5216465;28;20038;-75
2023/04/02 00:27:24;;;;;;;8.40;7.53;;;;;;;-150.27;100.00;61272.81;5215731;28;20120;-74
2023/04/02 00:29:57;;;;;;;7.33;6.73;;;;;;;-150.27;100.00;61272.81;5215884;28;20033;-75
2023/04/02 00:32:34;;;;;;;8.30;7.60;;;;;;;-150.27;100.00;61272.81;5199627;28;20136;-73
2023/04/02 00:35:17;;;;;;;8.80;8.00;;;;;;;-150.27;100.00;61272.81;5236242;28;20025;-71
2023/04/02 00:37:49;;;;;;;9.07;8.17;;;;;;;-150.27;100.00;61272.81;5212924;28;20872;-74
2023/04/02 00:40:29;;;;;;;8.93;8.10;;;;;;;-150.27;100.00;61272.81;5212939;28;20053;-73
2023/04/02 00:43:03;;;;;;;8.60;7.80;;;;;;;-150.27;100.00;61272.81;5212380;28;20599;-73
2023/04/02 00:45:37;;;;;;;8.80;7.90;;;;;;;-150.27;100.00;61272.81;5212929;28;20026;-73
2023/04/02 00:48:49;;;;;;;8.23;7.43;;;;;;;-150.27;100.00;61272.81;5212053;28;20026;-73
2023/04/02 00:51:28;;;;;;;7.97;7.17;;;;;;;-150.27;100.00;61272.81;5198176;28;20124;-73
2023/04/02 00:54:04;;;;;;;8.03;7.13;;;;;;;-150.27;100.00;61272.81;5215359;28;20033;-73
2023/04/02 00:56:41;;;;;;;8.60;7.80;;;;;;;-150.27;100.00;61272.81;5233392;28;20477;-72
2023/04/02 00:59:23;;;;;;;8.27;7.47;;;;;;;-150.27;100.00;61272.81;5233100;28;20025;-73
2023/04/02 01:02:21;;;;;;;7.80;7.00;;;;;;;-150.27;100.00;61272.81;5214389;28;20028;-74
2023/04/02 01:05:01;;;;;;;9.10;7.37;;;;;;;-150.27;100.00;61272.81;5232888;28;20021;-73
2023/04/02 01:08:14;;;;;;;8.20;7.40;;;;;;;-150.27;100.00;61272.81;5232734;28;20439;-73
2023/04/02 01:10:54;;;;;;;9.17;8.27;;;;;;;-150.27;100.00;61272.81;5191418;28;20042;-74
2023/04/02 01:13:37;;;;;;;9.13;8.33;;;;;;;-150.27;100.00;61272.81;5229637;28;20126;-72
2023/04/02 01:16:31;;;;;;;8.97;7.77;;;;;;;-150.27;100.00;61272.81;5213924;28;20053;-71
2023/04/02 01:19:31;;;;;;;9.10;8.20;;;;;;;-150.27;100.00;61272.81;5232327;28;20104;-73
2023/04/02 01:22:24;;;;;;;9.77;7.90;;;;;;;-150.27;100.00;61272.81;5231081;28;20048;-72
2023/04/02 01:24:57;;;;;;;9.10;8.23;;;;;;;-150.27;100.00;61272.81;5215060;28;20081;-72
2023/04/02 01:27:48;;;;;;;9.73;8.53;;;;;;;-150.27;100.00;61272.81;5232496;28;20167;-73
2023/04/02 01:30:20;;;;;;;8.27;7.50;;;;;;;-150.27;100.00;61272.81;5232198;28;20388;-74
2023/04/02 01:32:53;;;;;;;7.90;6.90;;;;;;;-150.27;100.00;61272.81;5213635;28;20029;-72
2023/04/02 01:35:28;;;;;;;8.10;7.30;;;;;;;-150.27;100.00;61272.81;5232745;28;20029;-73
2023/04/02 01:38:12;;;;;;;7.90;7.10;;;;;;;-150.27;100.00;61272.81;5232390;28;20041;-74
2023/04/02 01:40:49;;;;;;;7.70;6.47;;;;;;;-150.27;100.00;61272.81;5232303;28;20084;-73
2023/04/02 01:43:34;;;;;;;7.13;6.43;;;;;;;-150.27;100.00;61272.81;5207131;28;20074;-73
2023/04/02 01:46:30;;;;;;;8.70;7.40;;;;;;;-150.27;100.00;61272.81;5210841;28;20033;-72
2023/04/02 01:49:13;;;;;;;10.00;9.00;;;;;;;-150.27;100.00;61272.81;5211544;28;20419;-73
2023/04/02 01:51:50;;;;;;;9.73;8.77;;;;;;;-150.27;100.00;61272.81;5211818;28;20455;-72
2023/04/02 01:54:22;;;;;;;13.23;9.17;;;;;;;-150.27;100.00;61272.81;5194117;28;20026;-73
2023/04/02 01:56:56;;;;;;;9.77;8.87;;;;;;;-150.27;100.00;61272.81;5193440;28;20037;-73
2023/04/02 01:59:27;;;;;;;9.43;8.53;;;;;;;-150.27;100.00;61272.81;5211531;28;20126;-73
2023/04/02 02:02:10;;;;;;;8.90;8.00;;;;;;;-150.27;100.00;61272.81;5210344;28;20030;-73
2023/04/02 02:04:43;;;;;;;13.27;8.40;;;;;;;-150.27;100.00;61272.81;5194045;28;20036;-73
2023/04/02 02:07:18;;;;;;;10.13;8.13;;;;;;;-150.27;100.00;61272.81;5193673;28;20022;-74
2023/04/02 02:09:50;;;;;;;8.60;7.70;;;;;;;-150.27;100.00;61272.81;5211530;28;20029;-73
2023/04/02 02:12:21;;;;;;;8.80;6.83;;;;;;;-150.27;100.00;61272.81;5197991;28;20026;-73
2023/04/02 02:14:53;;;;;;;7.13;6.37;;;;;;;-150.27;100.00;61272.81;5211585;28;20026;-73
2023/04/02 02:17:33;;;;;;;7.30;6.33;;;;;;;-150.27;100.00;61272.81;5192834;28;20057;-73
2023/04/02 02:20:09;;;;;;;6.47;5.60;;;;;;;-150.27;100.00;61272.81;5193428;28;20180;-73
2023/04/02 02:22:47;;;;;;;5.73;5.20;;;;;;;-150.27;100.00;61272.81;5211492;28;20123;-73
2023/04/02 02:25:23;;;;;;;6.67;6.03;;;;;;;-150.27;100.00;61272.81;5198214;28;20512;-73
2023/04/02 02:27:58;;;;;;;6.83;5.53;;;;;;;-150.27;100.00;61272.81;5222836;28;20502;-72
2023/04/02 02:30:45;;;;;;;7.33;5.97;;;;;;;-150.27;100.00;61272.81;5210376;28;20090;-73
2023/04/02 02:33:24;;;;;;;6.03;5.43;;;;;;;-150.27;100.00;61272.81;5195538;28;20088;-72
2023/04/02 02:36:00;;;;;;;5.70;5.10;;;;;;;-150.27;100.00;61272.81;5224902;28;20039;-72
2023/04/02 02:38:55;;;;;;;5.07;4.57;;;;;;;-150.27;100.00;61272.81;5234057;28;20037;-73
2023/04/02 02:42:00;;;;;;;4.90;4.22;;;;;;;-150.27;100.00;61272.81;5227366;28;20057;-73
2023/04/02 02:44:38;;;;;;;4.93;4.43;;;;;;;-150.27;100.00;61272.81;5231025;28;20083;-72
2023/04/02 02:47:15;;;;;;;5.03;4.53;;;;;;;-150.27;100.00;61272.81;5219030;28;20091;-73
2023/04/02 02:49:55;;;;;;;4.63;4.23;;;;;;;-150.27;100.00;61272.81;5217901;28;20090;-72
2023/04/02 02:52:35;;;;;;;5.17;4.27;;;;;;;-150.27;100.00;61272.81;5235176;28;20051;-72
2023/04/02 02:55:15;;;;;;;5.00;4.13;;;;;;;-150.27;100.00;61272.81;5230791;28;20083;-71
2023/04/02 02:57:51;;;;;;;7.13;4.30;;;;;;;-150.27;100.00;61272.81;5224476;28;20041;-71
2023/04/02 03:00:24;;;;;;;5.10;4.20;;;;;;;-150.27;100.00;61272.81;5234214;28;20099;-71
2023/04/02 03:02:56;;;;;;;6.23;4.63;;;;;;;-150.27;100.00;61272.81;5234947;28;20047;-72
2023/04/02 03:05:28;;;;;;;6.07;5.30;;;;;;;-150.27;100.00;61272.81;5235303;28;20859;-72
2023/04/02 03:08:04;;;;;;;7.53;5.30;;;;;;;-150.27;100.00;61272.81;5234326;28;20757;-71
2023/04/02 03:10:39;;;;;;;8.90;6.30;;;;;;;-150.27;100.00;61272.81;5234976;28;20034;-72
2023/04/02 03:13:38;;;;;;;6.37;5.77;;;;;;;-150.27;100.00;61272.81;5235392;28;20036;-72
2023/04/02 03:16:24;;;;;;;9.63;7.07;;;;;;;-150.27;100.00;61272.81;5231336;28;20038;-73
2023/04/02 03:19:19;;;;;;;8.57;6.53;;;;;;;-150.27;100.00;61272.81;5235220;28;20033;-72
2023/04/02 03:21:56;;;;;;;10.02;6.82;;;;;;;-150.27;100.00;61272.81;5217684;28;20102;-72
2023/04/02 03:24:46;;;;;;;10.10;7.77;;;;;;;-150.27;100.00;61272.81;5234783;28;20048;-71
2023/04/02 03:27:26;;;;;;;9.43;7.77;;;;;;;-150.27;100.00;61272.81;5234789;28;20116;-71
2023/04/02 03:30:18;;;;;;;9.30;7.60;;;;;;;-150.27;100.00;61272.81;5235020;28;20029;-73
2023/04/02 03:32:53;;;;;;;8.97;7.83;;;;;;;-150.27;100.00;61272.81;5227059;28;20041;-71
2023/04/02 03:35:36;;;;;;;8.53;6.83;;;;;;;-150.27;100.00;61272.81;5235079;28;20038;-72
2023/04/02 03:38:29;;;;;;;9.80;8.20;;;;;;;-150.27;100.00;61272.81;5196000;28;20125;-71
2023/04/02 03:41:09;;;;;;;7.83;7.03;;;;;;;-150.27;100.00;61272.81;5196187;28;20049;-71
2023/04/02 03:43:45;;;;;;;9.23;7.17;;;;;;;-150.27;100.00;61272.81;5207490;28;20045;-72
2023/04/02 03:46:23;;;;;;;8.87;7.50;;;;;;;-150.27;100.00;61272.81;5224967;28;20915;-72
2023/04/02 03:48:57;;;;;;;16.10;8.27;;;;;;;-150.27;100.00;61272.81;5203789;28;20510;-72
2023/04/02 03:51:52;;;;;;;;;;;;;;;-150.27;100.00;61272.81;5233993;28;20790;-72
2023/04/02 03:54:23;;;;;;;9.80;7.20;;;;;;;-150.27;100.00;61272.81;5216138;28;19928;-72
2023/04/02 03:56:55;;;;;;;9.17;7.10;;;;;;;-150.27;100.00;61272.81;5201096;28;20660;-72
2023/04/02 03:59:35;;;;;;;9.37;6.97;;;;;;;-150.27;100.00;61272.81;5253259;28;20488;-72
2023/04/02 04:02:10;;;;;;;10.87;7.77;;;;;;;-150.27;100.00;61272.81;5245105;28;20028;-72
2023/04/02 04:04:44;;;;;;;8.63;6.88;;;;;;;-150.27;100.00;61272.81;5217041;28;20037;-72
2023/04/02 04:07:28;;;;;;;;;;;;;;;-150.27;100.00;61272.81;5234571;28;20526;-70
2023/04/02 04:10:01;;;;;;;9.03;7.17;;;;;;;-150.27;100.00;61272.81;5216547;28;20034;-72
2023/04/02 04:12:33;;;;;;;8.83;7.43;;;;;;;-150.27;100.00;61272.81;5234364;28;20029;-72
2023/04/02 04:15:26;;;;;;;7.23;6.53;;;;;;;-150.27;100.00;61272.81;5231207;28;20033;-72
2023/04/02 04:18:18;;;;;;;8.80;7.50;;;;;;;-150.27;100.00;61272.81;5254120;28;20036;-72
2023/04/02 04:20:55;;;;;;;8.57;7.40;;;;;;;-150.27;100.00;61272.81;5237068;28;20037;-72
2023/04/02 04:23:30;;;;;;;8.90;7.30;;;;;;;-150.27;100.00;61272.81;5236040;28;20475;-72
2023/04/02 04:26:18;;;;;;;10.38;8.32;;;;;;;-150.27;100.00;61272.81;5236735;28;20200;-72
2023/04/02 04:28:57;;;;;;;8.93;7.97;;;;;;;-150.27;100.00;61272.81;5254809;28;20025;-72
2023/04/02 04:31:48;;;;;;;12.00;7.27;;;;;;;-150.27;100.00;61272.81;5253947;28;20056;-71
2023/04/02 04:34:50;;;;;;;8.53;7.67;;;;;;;-150.27;100.00;61272.81;5254758;28;20469;-72
2023/04/02 04:37:34;;;;;;;8.97;7.77;;;;;;;-150.27;100.00;61272.81;5252735;28;20112;-72
2023/04/02 04:40:17;;;;;;;8.87;7.97;;;;;;;-150.27;100.00;61272.81;5254065;28;20356;-72
2023/04/02 04:42:53;;;;;;;7.90;7.10;;;;;;;-150.27;100.00;61272.81;5254867;28;20045;-72
2023/04/02 04:45:41;;;;;;;8.33;7.27;;;;;;;-150.27;100.00;61272.81;5253498;28;20025;-72
2023/04/02 04:48:19;;;;;;;7.10;6.40;;;;;;;-150.27;100.00;61272.81;5254353;28;20032;-72
2023/04/02 04:50:56;;;;;;;7.70;6.07;;;;;;;-150.27;100.00;61272.81;5245864;28;20033;-72
2023/04/02 04:53:29;;;;;;;8.27;5.73;;;;;;;-150.27;100.00;61272.81;5216049;28;20033;-73
2023/04/02 04:56:05;;;;;;;7.10;5.90;;;;;;;-150.27;100.00;61272.81;5232257;28;20069;-72
2023/04/02 04:58:44;;;;;;;6.77;5.53;;;;;;;-150.27;100.00;61272.81;5234038;28;20059;-71
2023/04/02 05:01:22;;;;;;;6.93;5.40;;;;;;;-150.27;100.00;61272.81;5231838;28;20067;-71
2023/04/02 05:04:03;;;;;;;6.73;5.30;;;;;;;-150.27;100.00;61272.81;5233472;28;20381;-72
2023/04/02 05:06:37;;;;;;;6.87;5.30;;;;;;;-150.27;100.00;61272.81;5215113;28;20037;-71
2023/04/02 05:09:18;;;;;;;8.03;5.70;;;;;;;-150.27;100.00;61272.81;5233326;28;20033;-71
2023/04/02 05:12:14;;;;;;;6.73;5.97;;;;;;;-150.27;100.00;61272.81;5233146;28;20662;-72
2023/04/02 05:14:55;;;;;;;8.97;5.47;;;;;;;-150.27;100.00;61272.81;5237217;28;20483;-73
2023/04/02 05:17:32;;;;;;;8.27;5.97;;;;;;;-150.27;100.00;61272.81;5253086;28;20114;-71
2023/04/02 05:20:21;;;;;;;6.67;5.53;;;;;;;-150.27;100.00;61272.81;5218308;28;20113;-72
2023/04/02 05:22:59;;;;;;;10.63;5.70;;;;;;;-150.27;100.00;61272.81;5233417;28;20113;-72
2023/04/02 05:25:31;;;;;;;7.13;5.47;;;;;;;-150.27;100.00;61272.81;5232862;28;20074;-72
2023/04/02 05:28:12;;;;;;;6.73;5.97;;;;;;;-150.27;100.00;61272.81;5232603;28;20467;-71
2023/04/02 05:30:51;;;;;;;7.03;5.43;;;;;;;-150.27;100.00;61272.81;5230950;28;20547;-72
2023/04/02 05:33:27;;;;;;;7.47;5.60;;;;;;;-150.27;100.00;61272.81;5231304;28;20431;-72
2023/04/02 05:36:10;;;;;;;6.17;4.80;;;;;;;-150.27;100.00;61272.81;5232199;28;20030;-72
2023/04/02 05:38:47;;;;;;;7.60;5.10;;;;;;;-150.27;100.00;61272.81;5215504;28;20025;-72
2023/04/02 05:41:25;;;;;;;7.27;5.07;;;;;;;-150.27;100.00;61272.81;5230251;28;20033;-72
2023/04/02 05:44:07;;;;;;;6.83;4.97;;;;;;;-150.27;100.00;61272.81;5194423;28;20073;-73
2023/04/02 05:46:50;;;;;;;10.50;6.03;;;;;;;-150.27;100.00;61272.81;5211629;28;20065;-73
2023/04/02 05:49:30;;;;;;;9.40;6.13;;;;;;;-150.27;100.00;61272.81;5212913;28;20025;-72
2023/04/02 05:52:05;;;;;;;6.73;5.70;;;;;;;-150.27;100.00;61272.81;5218943;28;20033;-73
2023/04/02 05:55:12;;;;;;;7.53;5.90;;;;;;;-150.27;100.00;61272.81;5231852;28;20032;-72
2023/04/02 05:57:50;;;;;;;7.33;6.10;;;;;;;-150.27;100.00;61272.81;5218235;28;20041;-72
2023/04/02 06:00:40;;;;;;;10.90;6.13;;;;;;;-150.27;100.00;61272.81;5213111;28;20074;-72
2023/04/02 06:03:22;;;;;;;9.10;6.90;;;;;;;-150.27;100.00;61272.81;5229902;28;20038;-72
2023/04/02 06:05:59;;;;;;;10.90;7.13;;;;;;;-150.27;100.00;61272.81;5222082;28;20531;-73
2023/04/02 06:08:57;;;;;;;9.70;7.03;;;;;;;-150.27;100.00;61272.81;5212043;28;20041;-72
2023/04/02 06:11:41;;;;;;;9.00;7.03;;;;;;;-150.27;100.00;61272.81;5189859;28;20053;-71
2023/04/02 06:14:14;;;;;;;10.60;7.30;;;;;;;-150.27;100.00;61272.81;5211999;28;20030;-72
2023/04/02 06:16:45;;;;;;;12.23;7.77;;;;;;;-150.27;100.00;61272.81;5210827;28;20456;-74
2023/04/02 06:19:29;;;;;;;11.90;7.90;;;;;;;-150.27;100.00;61272.81;5211541;28;20037;-71
2023/04/02 06:22:31;;;;;;;10.03;7.23;;;;;;;-150.27;100.00;61272.81;5203069;28;20520;-71
2023/04/02 06:25:21;;;;;;;10.37;7.67;;;;;;;-150.27;100.00;61272.81;5201354;28;20028;-74
2023/04/02 06:27:55;;;;;;;13.37;7.43;;;;;;;-150.27;100.00;61272.81;5227692;28;20029;-73
2023/04/02 06:30:32;;;;;;;11.13;7.10;;;;;;;-150.27;100.00;61272.81;5229651;28;20056;-74
2023/04/02 06:33:04;;;;;;;9.13;6.97;;;;;;;-150.27;100.00;61272.81;5228191;28;20625;-73
2023/04/02 06:35:39;;;;;;;13.20;6.93;;;;;;;-150.27;100.00;61272.81;5197331;28;20044;-73
2023/04/02 06:38:24;;;;;;;13.47;7.87;;;;;;;-150.27;100.00;61272.81;5226637;28;20119;-73
2023/04/02 06:40:58;;;;;;;12.87;6.27;;;;;;;-150.27;100.00;61272.81;5251329;28;20036;-73
2023/04/02 06:44:14;;;;;;;9.93;6.80;;;;;;;-150.27;100.00;61272.81;5214166;28;20539;-73
2023/04/02 06:46:56;;;;;;;8.18;6.10;;;;;;;-150.27;100.00;61272.81;5231432;28;20035;-73
2023/04/02 06:49:42;;;;;;;8.90;6.33;;;;;;;-150.27;100.00;61272.81;5210897;28;20034;-73
2023/04/02 06:52:27;;;;;;;10.97;5.93;;;;;;;-150.27;100.00;61272.81;5193144;28;20034;-74
2023/04/02 06:54:58;;;;;;;12.43;6.50;;;;;;;-150.27;100.00;61272.81;5227300;28;20126;-73
2023/04/02 06:57:31;;;;;;;10.17;5.30;;;;;;;-150.27;100.00;61272.81;5234630;28;20076;-72
2023/04/02 07:00:03;;;;;;;7.50;5.80;;;;;;;-150.27;100.00;61272.81;5223913;28;20569;-73
2023/04/02 07:02:38;;;;;;;7.80;5.63;;;;;;;-150.27;100.00;61272.81;5231723;28;20083;-72
2023/04/02 07:05:10;;;;;;;9.87;5.97;;;;;;;-150.27;100.00;61272.81;5214341;28;20480;-73
2023/04/02 07:07:41;;;;;;;8.07;5.70;;;;;;;-150.27;100.00;61272.81;5232040;28;20029;-73
2023/04/02 07:10:12;;;;;;;8.73;5.60;;;;;;;-150.27;100.00;61272.81;5213103;28;20498;-72
2023/04/02 07:12:44;;;;;;;9.87;5.03;;;;;;;-150.27;100.00;61272.81;5214402;28;20175;-72
2023/04/02 07:15:18;;;;;;;7.60;5.23;;;;;;;-150.27;100.00;61272.81;5230430;28;20025;-73
2023/04/02 07:17:51;;;;;;;6.80;4.67;;;;;;;-150.27;100.00;61272.81;5214338;28;20132;-71
2023/04/02 07:20:35;;;;;;;7.60;4.83;;;;;;;-150.27;100.00;61272.81;5234536;28;20108;-72
2023/04/02 07:23:07;;;;;;;10.57;4.85;;;;;;;-150.27;100.00;61272.81;5235497;28;20388;-73
2023/04/02 07:25:38;;;;;;;9.73;4.07;;;;;;;-150.27;100.00;61272.81;5235445;28;20040;-73
2023/04/02 07:28:12;;;;;;;6.47;3.80;;;;;;;-150.27;100.00;61272.81;5235056;28;20029;-72
2023/04/02 07:30:44;;;;;;;7.50;4.38;;;;;;;-150.27;100.00;61272.81;5245019;28;20017;-73
2023/04/02 07:33:17;;;;;;;7.77;4.23;;;;;;;-150.27;100.00;61272.81;5255679;28;20028;-72
2023/04/02 07:35:50;;;;;;;5.87;3.20;;;;;;;-150.27;100.00;61272.81;5256084;28;20025;-72
2023/04/02 07:38:22;;;;;;;7.47;3.30;;;;;;;-150.27;100.00;61272.81;5255437;28;20478;-72
2023/04/02 07:40:53;;;;;;;6.77;2.73;;;;;;;-150.27;100.00;61272.81;5255746;28;20116;-72
2023/04/02 07:43:25;;;;;;;6.40;2.90;;;;;;;-150.27;100.00;61272.81;5255375;28;20113;-72
2023/04/02 07:45:56;;;;;;;5.57;2.97;;;;;;;-150.27;100.00;61272.81;5253836;28;20075;-72
2023/04/02 07:48:28;;;;;;;7.33;3.87;;;;;;;-150.27;100.00;61272.81;5255848;28;20025;-73
2023/04/02 07:51:02;;;;;;;6.37;2.80;;;;;;;-150.27;100.00;61272.81;5237619;28;20060;-72
2023/04/02 07:53:36;;;;;;;8.20;3.60;;;;;;;-150.27;100.00;61272.81;5255504;28;20108;-72
2023/04/02 07:56:12;;;;;;;;;;;;;;;-150.27;100.00;61272.81;5237713;28;20040;-72
2023/04/02 07:58:43;;;;;;;;;;;;;;;-150.27;100.00;61272.81;5255829;28;19924;-73
2023/04/02 08:01:22;;;;;;;6.37;3.07;;;;;;;-150.27;100.00;61272.81;5254058;28;19913;-73
2023/04/02 08:03:56;;;;;;;8.03;4.43;;;;;;;-150.27;100.00;61272.81;5255705;28;20490;-72
2023/04/02 08:06:27;;;;;;;6.73;3.20;;;;;;;-150.27;100.00;61272.81;5241534;28;20025;-72
2023/04/02 08:08:59;;;;;;;9.17;3.73;;;;;;;-150.27;100.00;61272.81;5234098;28;20037;-73
2023/04/02 08:11:31;;;;;;;6.33;2.57;;;;;;;-150.27;100.00;61272.81;5216740;28;20021;-73
2023/04/02 08:14:02;;;;;;;7.07;3.17;;;;;;;-150.27;100.00;61272.81;5233249;28;20032;-72
2023/04/02 08:16:51;;;;;;;4.77;3.03;;;;;;;-150.27;100.00;61272.81;5233603;28;20113;-72
2023/04/02 08:19:22;;;;;;;5.60;2.87;;;;;;;-150.27;100.00;61272.81;5234535;28;20029;-72
2023/04/02 08:21:53;;;;;;;4.97;2.30;;;;;;;-150.27;100.00;61272.81;5216404;28;20555;-73
2023/04/02 08:24:25;;;;;;;6.13;2.40;;;;;;;-150.27;100.00;61272.81;5234351;28;20125;-73
2023/04/02 08:26:57;;;;;;;7.73;2.67;;;;;;;-150.27;100.00;61272.81;5233736;28;20465;-73
2023/04/02 08:29:31;;;;;;;7.03;2.70;;;;;;;-150.27;100.00;61272.81;5233497;28;20068;-73
2023/04/02 08:32:02;;;;;;;6.40;2.63;;;;;;;-150.27;100.00;61272.81;5254561;28;20714;-73
2023/04/02 08:34:33;;;;;;;7.83;2.60;;;;;;;-150.27;100.00;61272.81;5237126;28;20028;-73
2023/04/02 08:37:04;;;;;;;5.43;2.57;;;;;;;-150.27;100.00;61272.81;5237379;28;20076;-74
2023/04/02 08:39:36;;;;;;;9.70;2.70;;;;;;;-150.27;100.00;61272.81;5232581;28;20038;-72
2023/04/02 08:42:18;;;;;;;7.20;2.67;;;;;;;-150.27;100.00;61272.81;5233532;28;20030;-74
2023/04/02 08:45:07;;;;;;;4.97;2.83;;;;;;;-150.27;100.00;61272.81;5233105;28;20053;-73
2023/04/02 08:47:40;;;;;;;6.50;3.13;;;;;;;-150.27;100.00;61272.81;5234029;28;20045;-73
2023/04/02 08:50:22;;;;;;;6.60;3.00;;;;;;;-150.27;100.00;61272.81;5233538;28;20040;-73
2023/04/02 08:52:53;;;;;;;5.50;2.90;;;;;;;-150.27;100.00;61272.81;5234134;28;20053;-73
2023/04/02 08:55:38;;;;;;;4.90;2.47;;;;;;;-150.27;100.00;61272.81;5233389;28;20073;-73
2023/04/02 08:58:23;;;;;;;;;;;;;;;-150.27;100.00;61272.81;5226035;28;20033;-73
2023/04/02 09:00:56;;;;;;;6.07;2.47;;;;;;;-150.27;100.00;61272.81;5233276;28;19951;-72
2023/04/02 09:03:34;;;;;;;7.90;3.70;;;;;;;-150.27;100.00;61272.81;5236505;28;20033;-73
2023/04/02 09:06:08;;;;;;;6.27;2.10;;;;;;;-150.27;100.00;61272.81;5227831;28;20056;-72
2023/04/02 09:08:42;;;;;;;4.53;2.20;;;;;;;-150.27;100.00;61272.81;5213665;28;20034;-73
2023/04/02 09:11:20;;;;;;;5.53;1.95;;;;;;;-150.27;100.00;61272.81;5194607;28;20120;-73
2023/04/02 09:13:57;;;;;;;7.90;2.30;;;;;;;-150.27;100.00;61272.81;5229105;28;20025;-72
2023/04/02 09:16:48;;;;;;;8.03;2.00;;;;;;;-150.27;100.00;61272.81;5208279;28;20061;-72
2023/04/02 09:19:35;;;;;;;6.67;3.10;;;;;;;-150.27;100.00;61272.81;5246295;28;20033;-72
2023/04/02 09:22:14;;;;;;;6.33;2.43;;;;;;;-150.27;100.00;61272.81;5220172;28;20041;-74
2023/04/02 09:24:51;;;;;;;7.40;2.30;;;;;;;-150.27;100.00;61272.81;5216516;28;20029;-75
2023/04/02 09:27:26;;;;;;;4.70;2.00;;;;;;;-150.27;100.00;61272.81;5228349;28;20033;-75
2023/04/02 09:30:03;;;;;;;10.63;2.87;;;;;;;-150.27;100.00;61272.81;5251928;28;20036;-74
2023/04/02 09:32:49;;;;;;;5.57;1.90;;;;;;;-150.27;100.00;61272.81;5224543;28;20638;-73
2023/04/02 09:35:26;;;;;;;4.77;2.00;;;;;;;-150.27;100.00;61272.81;5214822;28;20025;-75
2023/04/02 09:38:23;;;;;;;7.43;2.07;;;;;;;-150.27;100.00;61272.81;5214531;28;20522;-72
2023/04/02 09:41:06;;;;;;;4.50;1.83;;;;;;;-150.27;100.00;61272.81;5214720;28;20142;-76
2023/04/02 09:43:38;;;;;;;8.70;1.97;;;;;;;-150.27;100.00;61272.81;5232271;28;20042;-76
2023/04/02 09:46:12;;;;;;;7.03;2.13;;;;;;;-150.27;100.00;61272.81;5231186;28;20052;-76
2023/04/02 09:48:52;;;;;;;4.85;1.90;;;;;;;-150.27;100.00;61272.81;5231053;28;20064;-74
2023/04/02 09:51:25;;;;;;;5.43;2.10;;;;;;;-150.27;100.00;61272.81;5224176;28;20026;-74
2023/04/02 09:54:02;;;;;;;5.17;2.00;;;;;;;-150.27;100.00;61272.81;5227758;28;20052;-73
2023/04/02 09:56:36;;;;;;;11.40;2.73;;;;;;;-150.27;100.00;61272.81;5232194;28;20104;-75
2023/04/02 09:59:20;;;;;;;4.33;2.07;;;;;;;-150.27;100.00;61272.81;5212231;28;20491;-73
2023/04/02 10:01:51;;;;;;;7.20;2.38;;;;;;;-150.27;100.00;61272.81;5208494;28;20079;-73
2023/04/02 10:04:45;;;;;;;6.23;2.10;;;;;;;-150.27;100.00;61272.81;5218483;28;20029;-75
2023/04/02 10:07:34;;;;;;;8.70;2.73;;;;;;;-150.27;100.00;61272.81;5226835;28;20029;-75
2023/04/02 10:10:23;;;;;;;8.30;2.20;;;;;;;-150.27;100.00;61272.81;5229141;28;20056;-75
2023/04/02 10:13:01;;;;;;;4.00;2.07;;;;;;;-150.27;100.00;61272.81;5231961;28;20025;-73
2023/04/02 10:15:38;;;;;;;5.13;2.07;;;;;;;-150.27;100.00;61272.81;5225503;28;20117;-77
2023/04/02 10:18:21;;;;;;;3.97;2.07;;;;;;;-150.27;100.00;61272.81;5213627;28;20033;-73
2023/04/02 10:20:54;;;;;;;6.83;2.57;;;;;;;-150.27;100.00;61272.81;5208567;28;20064;-77
2023/04/02 10:23:28;;;;;;;5.80;2.70;;;;;;;-150.27;100.00;61272.81;5230971;28;20380;-73
2023/04/02 10:26:27;;;;;;;3.55;1.73;;;;;;;-150.27;100.00;61272.81;5203091;28;20133;-71
2023/04/02 10:29:08;;;;;;;6.73;2.20;;;;;;;-150.27;100.00;61272.81;5228893;28;20113;-73
2023/04/02 10:31:55;;;;;;;6.03;2.03;;;;;;;-150.27;100.00;61272.81;5231024;28;20041;-72
2023/04/02 10:34:54;;;;;;;6.30;2.10;;;;;;;-150.27;100.00;61272.81;5230820;28;20733;-72
2023/04/02 10:37:53;;;;;;;5.80;2.93;;;;;;;-150.27;100.00;61272.81;5190881;28;20176;-71
2023/04/02 10:40:30;;;;;;;3.90;1.93;;;;;;;-150.27;100.00;61272.81;5219394;28;20379;-76
2023/04/02 10:43:11;;;;;;;6.80;1.90;;;;;;;-150.27;100.00;61272.81;5230802;28;20073;-74
2023/04/02 10:45:53;;;;;;;4.70;1.97;;;;;;;-150.27;100.00;61272.81;5228834;28;20040;-74
2023/04/02 10:48:46;;;;;;;5.20;2.00;;;;;;;-150.27;100.00;61272.81;5213036;28;20358;-73
2023/04/02 10:51:52;;;;;;;8.47;2.27;;;;;;;-150.27;100.00;61272.81;5225540;28;20428;-74
2023/04/02 10:54:32;;;;;;;6.07;2.20;;;;;;;-150.27;100.00;61272.81;5222475;28;20048;-75
2023/04/02 10:57:13;;;;;;;6.00;2.63;;;;;;;-150.27;100.00;61272.81;5229435;28;20038;-77
2023/04/02 11:00:08;;;;;;;3.47;1.60;;;;;;;-150.27;100.00;61272.81;5207121;28;20038;-72
2023/04/02 11:03:15;;;;;;;6.43;2.00;;;;;;;-150.27;100.00;61272.81;5218167;28;20045;-77
2023/04/02 11:05:49;;;;;;;4.77;1.80;;;;;;;-150.27;100.00;61272.81;5222773;28;20060;-73
2023/04/02 11:08:24;;;;;;;5.85;2.35;;;;;;;-150.27;100.00;61272.81;5228018;28;20042;-76
2023/04/02 11:11:02;;;;;;;5.00;2.10;;;;;;;-150.27;100.00;61272.81;5234735;28;20017;-76
2023/04/02 11:13:55;;;;;;;4.67;2.17;;;;;;;-150.27;100.00;61272.81;5224532;28;20033;-73
2023/04/02 11:16:27;;;;;;;4.27;1.67;;;;;;;-150.27;100.00;61272.81;5231610;28;20053;-74
2023/04/02 11:19:13;;;;;;;6.27;1.90;;;;;;;-150.27;100.00;61272.81;5233283;28;20029;-77
2023/04/02 11:21:48;;;;;;;4.80;1.93;;;;;;;-150.27;100.00;61272.81;5215786;28;20033;-79
2023/04/02 11:24:24;;;;;;;4.83;2.27;;;;;;;-150.27;100.00;61272.81;5235040;28;20036;-77
2023/04/02 11:27:08;;;;;;;4.13;1.93;;;;;;;-150.27;100.00;61272.81;5235343;28;20055;-72
2023/04/02 11:29:48;;;;;;;3.83;1.60;;;;;;;-150.27;100.00;61272.81;5234226;28;20512;-75
2023/04/02 11:32:19;;;;;;;7.00;2.30;;;;;;;-150.27;100.00;61272.81;5234378;28;20056;-75
2023/04/02 11:34:53;;;;;;;5.90;2.30;;;;;;;-150.27;100.00;61272.81;5231584;28;20124;-75
2023/04/02 11:37:42;;;;;;;7.82;2.25;;;;;;;-150.27;100.00;61272.81;5233931;28;20028;-77
2023/04/02 11:40:14;;;;;;;7.93;2.50;;;;;;;-150.27;100.00;61272.81;5233606;28;20036;-75
2023/04/02 11:42:47;;;;;;;6.30;1.90;;;;;;;-150.27;100.00;61272.81;5234294;28;20053;-77
2023/04/02 11:45:18;;;;;;;5.50;1.93;;;;;;;-150.27;100.00;61272.81;5230869;28;20041;-72
2023/04/02 11:47:59;;;;;;;5.27;2.30;;;;;;;-150.27;100.00;61272.81;5234928;28;20495;-74
2023/04/02 11:50:30;;;;;;;7.57;2.10;;;;;;;-150.27;100.00;61272.81;5214146;28;20192;-74
2023/04/02 11:53:20;;;;;;;6.33;2.00;;;;;;;-150.27;100.00;61272.81;5213913;28;20112;-77
2023/04/02 11:56:27;;;;;;;7.87;2.10;;;;;;;-150.27;100.00;61272.81;5216743;28;20037;-72
2023/04/02 11:59:10;;;;;;;5.50;2.07;;;;;;;-150.27;100.00;61272.81;5233083;28;20037;-70
2023/04/02 12:01:54;;;;;;;4.63;2.13;;;;;;;-150.27;100.00;61272.81;5234945;28;20040;-75
2023/04/02 12:04:32;;;;;;;5.27;2.07;;;;;;;-150.27;100.00;61272.81;5233503;28;20069;-77
2023/04/02 12:07:33;;;;;;;4.53;1.97;;;;;;;-150.27;100.00;61272.81;5233072;28;20518;-73